Hickory Isle, Michigan
Current Conditions -  °F | °C
As of 8:14 AM on Friday 28 Nov 2014 (Local Time) from KONZ Reporting Station
Broken Clouds Broken Clouds  
Wind Chill: 21°   Ceiling: 12000
Heat Index: 21°   Visibility: 10mi
Dew Point:   Wind: 0mph
Humidity: 58%   Direction: NA
Pressure: 30.35"   Gusts: NA
Location:  42.1357°N, 83.1574°W
Report Text: KONZ 281314Z AUTO 00000KT 10SM BKN120 M06/M13 A3035 RMK AO2
Loading
Personal Weather Stations






























Interactive Weather Map New forecast layout! Learn more

10-Day Weather Forecast

Advertisements
Track Severe Weather on mobile